Saint-Felix-De-Valois, Canada
Current Conditions -  °F | °C
As of 12:00 AM on Wednesday 26 Nov 2014 (Local Time) from CYRQ Reporting Station
Overcast Overcast  
Wind Chill: 27°   Ceiling: 6000
Heat Index: 37°   Visibility: 9mi
Dew Point: 27°   Wind: 18mph
Humidity: 65%   Direction: 230°SW
Pressure: 30.01"   Gusts: 28mph
Location:  46.17°N, 73.42°W
Report Text: CYRQ 260500Z AUTO 23016G24KT 9SM SCT050 OVC060 03/M03 A3001 RMK PRESRR SLP166
Loading
Personal Weather Stations






























Interactive Weather Map New forecast layout! Learn more

10-Day Weather Forecast

Advertisements
Track Severe Weather on mobile